Time;durP1;ratioP1;P1;durP2;ratioP2;P2;SDS_P1;SDS_P2;PMS_P1;PMS_P2;Temp;Humidity;BMP_temperature;BMP_pressure;BME280_temperature;BME280_humidity;BME280_pressure;Samples;Min_cycle;Max_cycle;Signal;HPM_P1;HPM_P2
2023/04/23 00:01:57;;;;;;;32.53;3.25;;;;;;;22.36;50.01;98669.03;7312393;19;129424;-35
2023/04/23 00:04:25;;;;;;;36.55;3.58;;;;;;;22.38;50.50;98671.50;7311402;19;129418;-34
2023/04/23 00:06:51;;;;;;;34.15;3.33;;;;;;;22.25;47.72;98665.94;7311653;19;130980;-35
2023/04/23 00:09:17;;;;;;;81.40;5.70;;;;;;;22.00;47.29;98656.50;7310814;19;130434;-36
2023/04/23 00:11:43;;;;;;;27.35;2.78;;;;;;;22.08;47.04;98659.13;7312662;19;129615;-37
2023/04/23 00:14:08;;;;;;;24.90;2.60;;;;;;;22.19;46.51;98656.16;7310697;19;129513;-32
2023/04/23 00:16:34;;;;;;;33.50;3.00;;;;;;;22.16;46.82;98656.47;7310995;19;130362;-34
2023/04/23 00:18:59;;;;;;;40.45;3.33;;;;;;;22.21;46.45;98654.19;7310274;19;130855;-32
2023/04/23 00:21:26;;;;;;;61.97;4.87;;;;;;;22.25;46.50;98652.84;7309993;19;129653;-36
2023/04/23 00:23:52;;;;;;;47.25;3.92;;;;;;;22.18;46.34;98644.06;7310017;19;129379;-38
2023/04/23 00:26:17;;;;;;;31.57;2.87;;;;;;;22.13;46.69;98648.97;7309528;19;131099;-39
2023/04/23 00:28:42;;;;;;;44.30;3.37;;;;;;;22.14;46.31;98637.50;7310926;19;131736;-39
2023/04/23 00:31:08;;;;;;;27.52;2.65;;;;;;;22.07;46.16;98636.53;7310722;19;129998;-37
2023/04/23 00:33:33;;;;;;;45.97;3.80;;;;;;;22.09;46.41;98634.56;7309099;19;129191;-35
2023/04/23 00:35:59;;;;;;;35.47;3.10;;;;;;;21.98;46.48;98616.59;7310206;19;129296;-34
2023/04/23 00:38:25;;;;;;;53.43;4.10;;;;;;;22.08;46.64;98622.47;7310273;19;129232;-40
2023/04/23 00:40:50;;;;;;;10.20;1.85;;;;;;;22.12;46.64;98624.56;7308632;19;129384;-37
2023/04/23 00:43:16;;;;;;;49.30;4.13;;;;;;;22.14;45.75;98627.03;7310393;19;129165;-35
2023/04/23 00:45:41;;;;;;;63.83;4.47;;;;;;;22.05;45.88;98620.19;7308794;19;129389;-34
2023/04/23 00:48:07;;;;;;;36.38;2.88;;;;;;;22.12;45.76;98629.00;7317372;19;130235;-38
2023/04/23 00:50:33;;;;;;;51.80;3.92;;;;;;;22.12;46.50;98629.00;7313782;19;129233;-33
2023/04/23 00:52:58;;;;;;;42.40;3.45;;;;;;;22.09;45.66;98629.31;7315089;19;128705;-35
2023/04/23 00:55:24;;;;;;;52.33;3.77;;;;;;;22.34;47.58;98630.91;7312962;19;129676;-33
2023/04/23 00:57:50;;;;;;;51.17;3.72;;;;;;;22.21;48.42;98630.63;7316464;19;129105;-36
2023/04/23 01:00:16;;;;;;;28.92;2.80;;;;;;;22.27;49.40;98632.56;7315211;19;129131;-35
2023/04/23 01:02:43;;;;;;;46.17;3.88;;;;;;;22.27;49.52;98627.31;7316031;19;129038;-38
2023/04/23 01:05:10;;;;;;;48.17;3.85;;;;;;;22.33;49.27;98637.94;7314644;19;129877;-34
2023/04/23 01:07:36;;;;;;;38.90;3.45;;;;;;;22.34;49.37;98636.16;7315218;19;130630;-40
2023/04/23 01:10:05;;;;;;;27.40;2.80;;;;;;;22.37;50.08;98638.44;7315577;19;130410;-36
2023/04/23 01:12:30;;;;;;;27.48;2.88;;;;;;;22.39;49.83;98636.47;7316969;19;128998;-36
2023/04/23 01:14:56;;;;;;;62.47;4.70;;;;;;;22.42;49.94;98636.97;7313473;19;129137;-36
2023/04/23 01:17:21;;;;;;;36.90;3.30;;;;;;;22.44;49.81;98636.78;7316116;19;131017;-35
2023/04/23 01:19:47;;;;;;;47.65;4.07;;;;;;;22.45;50.19;98630.56;7314798;19;128986;-32
2023/04/23 01:22:13;;;;;;;40.17;3.28;;;;;;;22.11;47.54;98637.84;7316845;19;129755;-31
2023/04/23 01:24:41;;;;;;;45.25;3.42;;;;;;;22.10;46.38;98642.25;7316072;19;129090;-37
2023/04/23 01:27:06;;;;;;;29.30;2.67;;;;;;;22.22;46.07;98637.47;7315994;19;130729;-40
2023/04/23 01:29:33;;;;;;;26.48;2.75;;;;;;;22.18;46.38;98644.06;7315723;19;129762;-31
2023/04/23 01:31:58;;;;;;;37.50;3.17;;;;;;;22.23;46.73;98632.06;7315608;19;129081;-37
2023/04/23 01:34:24;;;;;;;34.53;2.85;;;;;;;22.11;46.31;98635.22;7314215;19;130874;-36
2023/04/23 01:36:51;;;;;;;40.75;3.00;;;;;;;22.16;45.87;98643.41;7315709;19;130363;-38
2023/04/23 01:39:16;;;;;;;;;;;;;;;22.10;46.51;98634.38;7315278;19;129185;-36
2023/04/23 01:41:42;;;;;;;43.25;3.50;;;;;;;22.14;46.31;98637.50;7315769;19;130034;-34
2023/04/23 01:44:07;;;;;;;59.80;4.47;;;;;;;22.14;46.54;98637.50;7314555;19;129417;-35
2023/04/23 01:46:33;;;;;;;31.13;2.95;;;;;;;22.10;46.50;98630.97;7315701;19;128900;-33
2023/04/23 01:48:58;;;;;;;33.27;3.00;;;;;;;22.13;45.82;98630.66;7315228;19;129380;-35
2023/04/23 01:51:25;;;;;;;48.03;3.83;;;;;;;22.16;45.95;98630.31;7314698;19;129110;-36
2023/04/23 01:53:51;;;;;;;41.90;3.20;;;;;;;22.09;46.32;98621.47;7314923;19;130170;-35
2023/04/23 01:56:21;;;;;;;12.52;2.40;;;;;;;22.14;46.04;98624.41;7314321;19;129972;-33
2023/04/23 01:58:47;;;;;;;92.03;6.15;;;;;;;22.11;46.08;98632.59;7310302;19;129495;-40
2023/04/23 02:01:12;;;;;;;69.97;5.15;;;;;;;22.08;45.91;98631.13;7314758;19;129442;-40
2023/04/23 02:03:37;;;;;;;19.15;2.20;;;;;;;22.27;46.34;98632.56;7317557;19;129921;-39
2023/04/23 02:06:03;;;;;;;40.80;3.20;;;;;;;22.23;48.51;98631.28;7315895;19;130385;-39
2023/04/23 02:08:30;;;;;;;35.57;3.10;;;;;;;22.29;49.39;98625.38;7317487;19;128923;-41
2023/04/23 02:10:56;;;;;;;53.65;4.25;;;;;;;22.30;49.45;98617.34;7314048;19;129156;-41
2023/04/23 02:13:21;;;;;;;52.88;4.38;;;;;;;22.38;49.36;98622.53;7317191;19;129416;-39
2023/04/23 02:15:47;;;;;;;31.50;2.83;;;;;;;22.40;49.55;98627.63;7317653;19;129834;-41
2023/04/23 02:18:12;;;;;;;38.30;3.63;;;;;;;22.41;50.12;98616.16;7316570;19;129274;-39
2023/04/23 02:20:39;;;;;;;59.15;4.38;;;;;;;22.38;49.86;98603.41;7315802;19;129409;-41
2023/04/23 02:23:06;;;;;;;20.02;2.33;;;;;;;22.38;50.16;98603.41;7318032;19;130340;-41
2023/04/23 02:25:32;;;;;;;;;;;;;;;22.55;49.64;98618.09;7317830;19;128938;-42
2023/04/23 02:27:58;;;;;;;36.55;3.08;;;;;;;22.47;49.55;98621.56;7318680;19;129850;-41
2023/04/23 02:30:24;;;;;;;62.40;4.45;;;;;;;22.07;47.40;98626.06;7314342;19;128717;-41
2023/04/23 02:32:50;;;;;;;34.08;2.72;;;;;;;21.95;46.92;98608.09;7315988;19;129113;-42
2023/04/23 02:35:15;;;;;;;46.75;3.67;;;;;;;22.15;46.20;98613.78;7312978;19;130322;-41
2023/04/23 02:37:41;;;;;;;32.45;2.80;;;;;;;22.19;46.33;98619.50;7314556;19;128746;-38
2023/04/23 02:40:07;;;;;;;51.92;4.03;;;;;;;22.20;46.98;98626.34;7312683;19;129353;-42
2023/04/23 02:42:32;;;;;;;53.87;3.93;;;;;;;22.14;46.39;98622.63;7315694;19;129243;-38
2023/04/23 02:44:58;;;;;;;40.70;3.50;;;;;;;22.16;45.87;98625.06;7315801;19;129776;-42
2023/04/23 02:47:23;;;;;;;56.58;4.30;;;;;;;22.10;46.17;98629.16;7313447;19;129333;-34
2023/04/23 02:49:49;;;;;;;33.63;2.83;;;;;;;22.01;46.58;98616.25;7313376;19;128792;-42
2023/04/23 02:52:14;;;;;;;28.50;2.80;;;;;;;22.12;46.40;98634.22;7315525;19;130770;-40
2023/04/23 02:54:39;;;;;;;59.43;4.57;;;;;;;22.10;46.46;98630.97;7312744;19;129942;-41
2023/04/23 02:57:05;;;;;;;53.33;3.88;;;;;;;22.11;46.12;98619.50;7315016;19;128963;-40
2023/04/23 02:59:31;;;;;;;44.27;3.60;;;;;;;22.16;45.77;98623.28;7314292;19;129233;-40
2023/04/23 03:01:56;;;;;;;31.47;2.63;;;;;;;22.23;45.90;98620.81;7315816;19;129712;-38
2023/04/23 03:04:22;;;;;;;39.97;3.43;;;;;;;22.15;46.31;98623.44;7314917;19;129923;-40
2023/04/23 03:06:47;;;;;;;27.08;2.63;;;;;;;22.19;45.82;98619.50;7313944;19;128977;-42
2023/04/23 03:09:13;;;;;;;39.42;3.03;;;;;;;22.07;45.70;98600.69;7314532;19;129014;-39
2023/04/23 03:11:38;;;;;;;27.57;3.03;;;;;;;22.14;46.43;98606.09;7312698;19;130141;-42
2023/04/23 03:14:03;;;;;;;28.47;3.07;;;;;;;22.24;48.10;98609.34;7315471;19;129271;-42
2023/04/23 03:16:30;;;;;;;49.38;3.78;;;;;;;22.25;49.03;98603.94;7315706;19;128944;-41
2023/04/23 03:18:56;;;;;;;;;;;;;;;22.45;48.75;98609.59;7315289;19;129311;-42
2023/04/23 03:21:21;;;;;;;25.70;2.60;;;;;;;22.41;49.46;98609.13;7321731;19;129537;-41
2023/04/23 03:23:47;;;;;;;61.80;4.80;;;;;;;22.41;49.79;98605.69;7311139;19;130109;-41
2023/04/23 03:26:12;;;;;;;54.30;4.00;;;;;;;22.44;49.59;98608.81;7312571;19;130625;-39
2023/04/23 03:28:37;;;;;;;30.45;3.08;;;;;;;22.48;49.71;98604.00;7312009;19;129329;-36
2023/04/23 03:31:03;;;;;;;35.57;3.20;;;;;;;22.50;49.45;98596.81;7311071;19;129301;-34
2023/04/23 03:33:28;;;;;;;21.17;2.63;;;;;;;22.51;49.62;98587.97;7311654;19;129235;-37
2023/04/23 03:35:53;;;;;;;85.57;6.07;;;;;;;22.52;49.89;98589.59;7309427;19;129311;-39
2023/04/23 03:38:19;;;;;;;25.63;2.50;;;;;;;22.12;46.49;98594.97;7309969;19;131529;-36
2023/04/23 03:40:45;;;;;;;63.57;4.73;;;;;;;22.12;46.99;98597.56;7301194;19;130869;-39
2023/04/23 03:43:10;;;;;;;70.53;4.93;;;;;;;22.17;46.68;98582.19;7309665;19;132100;-39
2023/04/23 03:45:35;;;;;;;33.88;2.90;;;;;;;22.24;46.55;98580.53;7308925;19;129187;-37
2023/04/23 03:48:00;;;;;;;71.28;5.18;;;;;;;22.18;46.01;98575.97;7307970;19;129146;-39
2023/04/23 03:50:26;;;;;;;55.33;4.30;;;;;;;22.19;45.74;98572.38;7304890;19;132790;-36
2023/04/23 03:52:51;;;;;;;45.73;3.40;;;;;;;22.14;46.50;98559.78;7311193;19;130944;-37
2023/04/23 03:55:19;;;;;;;190.02;12.48;;;;;;;22.11;45.97;98565.38;7302866;19;129878;-39
2023/04/23 03:57:44;;;;;;;18.23;2.15;;;;;;;22.13;46.36;98562.59;7306972;19;129603;-35
2023/04/23 04:00:10;;;;;;;59.22;4.50;;;;;;;22.12;46.54;98558.31;7304426;19;131072;-38
2023/04/23 04:02:37;;;;;;;51.23;4.07;;;;;;;22.06;46.44;98559.00;7309447;19;130900;-35
2023/04/23 04:05:03;;;;;;;38.10;3.17;;;;;;;22.07;46.41;98578.94;7311635;19;129069;-37
2023/04/23 04:07:28;;;;;;;71.93;5.33;;;;;;;22.08;46.10;98580.59;7307678;19;129304;-37
2023/04/23 04:09:53;;;;;;;22.40;2.40;;;;;;;22.09;46.33;98574.34;7306027;19;130323;-37
2023/04/23 04:12:19;;;;;;;43.05;3.30;;;;;;;22.12;46.63;98577.47;7310462;19;129111;-40
2023/04/23 04:14:44;;;;;;;73.47;5.37;;;;;;;22.19;46.13;98573.19;7307050;19;129972;-35
2023/04/23 04:17:11;;;;;;;64.75;4.88;;;;;;;22.22;45.59;98572.84;7307277;19;129592;-39
2023/04/23 04:19:36;;;;;;;33.03;2.83;;;;;;;22.14;45.70;98569.44;7307839;19;131470;-37
2023/04/23 04:22:02;;;;;;;79.70;5.35;;;;;;;22.18;45.53;98575.97;7315784;19;129221;-40
2023/04/23 04:24:31;;;;;;;21.17;2.23;;;;;;;22.25;48.17;98576.91;7323315;19;131258;-39
2023/04/23 04:26:59;;;;;;;47.42;3.95;;;;;;;22.31;48.86;98576.28;7318055;19;130750;-37
2023/04/23 04:29:25;;;;;;;30.27;2.85;;;;;;;22.38;49.30;98574.63;7319775;19;131460;-37
2023/04/23 04:31:51;;;;;;;65.00;4.78;;;;;;;22.40;49.52;98575.25;7320999;19;129601;-38
2023/04/23 04:34:17;;;;;;;61.72;5.03;;;;;;;22.47;49.39;98578.81;7322746;19;129593;-36
2023/04/23 04:36:42;;;;;;;48.38;3.55;;;;;;;22.49;48.98;98587.34;7325021;19;129402;-39
2023/04/23 04:39:08;;;;;;;35.43;3.10;;;;;;;22.51;49.64;98577.50;7318747;19;129446;-37
2023/04/23 04:41:35;;;;;;;60.38;4.35;;;;;;;22.52;50.07;98581.75;7324039;19;130352;-39
2023/04/23 04:44:01;;;;;;;28.15;2.70;;;;;;;22.53;50.18;98593.88;7324412;19;130316;-35
2023/04/23 04:46:28;;;;;;;56.13;4.15;;;;;;;22.54;49.92;98585.06;7322112;19;130092;-37
2023/04/23 04:48:53;;;;;;;33.97;2.92;;;;;;;22.17;47.53;98600.50;7324000;19;130139;-39
2023/04/23 04:51:20;;;;;;;73.57;5.20;;;;;;;22.16;46.99;98601.50;7323836;19;129834;-39
2023/04/23 04:53:45;;;;;;;36.55;3.17;;;;;;;22.17;47.08;98595.28;7321277;19;129059;-35
2023/04/23 04:56:10;;;;;;;28.03;2.50;;;;;;;22.21;46.07;98586.13;7322600;19;128883;-36
2023/04/23 04:58:36;;;;;;;56.37;3.87;;;;;;;22.18;46.19;98594.31;7323381;19;131279;-36
2023/04/23 05:01:01;;;;;;;39.67;3.23;;;;;;;22.13;46.11;98597.41;7324469;19;129919;-36
2023/04/23 05:03:27;;;;;;;37.25;3.47;;;;;;;22.16;46.57;98601.50;7324236;19;129977;-37
2023/04/23 05:05:57;;;;;;;25.93;2.50;;;;;;;22.16;45.97;98598.88;7322291;19;130396;-35
2023/04/23 05:08:23;;;;;;;52.63;4.20;;;;;;;22.09;46.21;98582.22;7322018;19;130682;-36
2023/04/23 05:10:49;;;;;;;55.87;4.00;;;;;;;22.21;46.38;98596.59;7320280;19;130431;-37
2023/04/23 05:13:15;;;;;;;39.88;3.33;;;;;;;22.16;45.75;98599.72;7324578;19;129195;-38
2023/04/23 05:15:40;;;;;;;32.00;2.78;;;;;;;22.24;45.62;98596.25;7318023;19;131440;-36
2023/04/23 05:18:06;;;;;;;42.60;3.30;;;;;;;22.20;45.94;98606.22;7324171;19;129299;-35
2023/04/23 05:20:32;;;;;;;43.53;3.40;;;;;;;22.17;45.84;98605.75;7321970;19;130475;-37
2023/04/23 05:23:01;;;;;;;17.00;2.00;;;;;;;22.22;46.06;98599.03;7323789;19;129405;-36
2023/04/23 05:25:29;;;;;;;81.68;5.82;;;;;;;22.22;45.90;98608.69;7322640;19;129548;-40
2023/04/23 05:27:55;;;;;;;45.80;3.40;;;;;;;22.16;46.37;98606.75;7322880;19;130101;-37
2023/04/23 05:30:20;;;;;;;33.15;2.72;;;;;;;22.23;45.80;98610.34;7320062;19;129237;-39
2023/04/23 05:32:45;;;;;;;22.80;2.50;;;;;;;22.19;46.30;98614.25;7320347;19;128849;-35
2023/04/23 05:35:11;;;;;;;46.45;3.65;;;;;;;22.33;47.14;98618.81;7309891;19;131645;-31
2023/04/23 05:37:36;;;;;;;142.48;9.07;;;;;;;22.30;48.22;98614.72;7312472;19;130350;-38
2023/04/23 05:40:04;;;;;;;34.92;3.13;;;;;;;22.34;48.52;98620.44;7312664;19;130409;-36
2023/04/23 05:42:29;;;;;;;59.13;4.47;;;;;;;22.40;49.18;98611.91;7314169;19;128995;-38
2023/04/23 05:44:55;;;;;;;55.05;4.07;;;;;;;22.37;48.94;98602.59;7313714;19;129225;-40
2023/04/23 05:47:20;;;;;;;49.05;3.60;;;;;;;22.49;49.74;98621.38;7313023;19;129661;-39
2023/04/23 05:49:46;;;;;;;33.28;2.95;;;;;;;22.53;49.13;98617.44;7307281;19;130544;-36
2023/04/23 05:52:11;;;;;;;40.15;3.28;;;;;;;22.53;49.57;98623.53;7311938;19;129163;-38
2023/04/23 05:54:37;;;;;;;31.95;3.35;;;;;;;22.54;49.67;98625.16;7312222;19;129145;-36
2023/04/23 05:57:03;;;;;;;104.10;6.75;;;;;;;22.56;50.05;98622.38;7312861;19;130555;-38
2023/04/23 05:59:28;;;;;;;28.38;3.00;;;;;;;22.56;50.09;98620.56;7313801;19;130445;-35
2023/04/23 06:01:54;;;;;;;14.93;1.73;;;;;;;22.17;47.14;98619.66;7313286;19;128942;-39
2023/04/23 06:04:19;;;;;;;41.90;3.13;;;;;;;22.25;46.15;98629.28;7312356;19;130296;-32
2023/04/23 06:06:45;;;;;;;86.53;6.17;;;;;;;22.20;46.32;98608.84;7312451;19;129429;-40
2023/04/23 06:09:11;;;;;;;48.53;3.50;;;;;;;22.22;45.98;98614.75;7312854;19;129647;-38
2023/04/23 06:11:36;;;;;;;57.57;4.27;;;;;;;22.16;46.17;98614.59;7311382;19;129481;-38
2023/04/23 06:14:02;;;;;;;48.45;3.35;;;;;;;22.18;45.95;98613.44;7309108;19;129398;-38
2023/04/23 06:16:28;;;;;;;42.88;3.13;;;;;;;22.17;45.94;98624.91;7313856;19;129593;-39
2023/04/23 06:18:56;;;;;;;29.45;2.53;;;;;;;22.15;46.13;98615.59;7312288;19;130401;-39
2023/04/23 06:21:22;;;;;;;30.35;2.67;;;;;;;22.10;46.15;98615.28;7313973;19;128902;-40
2023/04/23 06:23:48;;;;;;;67.20;4.70;;;;;;;22.11;46.23;98616.91;7311639;19;128971;-34
2023/04/23 06:26:13;;;;;;;87.00;6.03;;;;;;;22.15;46.04;98615.59;7311625;19;129079;-36
2023/04/23 06:28:44;;;;;;;41.47;3.20;;;;;;;22.16;46.02;98625.06;7310474;19;130159;-40
2023/04/23 06:31:10;;;;;;;33.58;3.03;;;;;;;22.21;46.05;98620.97;7313688;19;129716;-33
2023/04/23 06:33:36;;;;;;;19.97;2.00;;;;;;;22.17;45.76;98624.06;7314076;19;130125;-36
2023/04/23 06:36:05;;;;;;;46.13;3.40;;;;;;;22.26;45.76;98626.53;7309756;19;130196;-35
2023/04/23 06:38:30;;;;;;;36.15;3.05;;;;;;;22.23;45.84;98626.03;7314014;19;131069;-38
2023/04/23 06:40:57;;;;;;;50.40;4.03;;;;;;;22.19;46.10;98628.19;7310467;19;129832;-34
2023/04/23 06:43:23;;;;;;;;;;;;;;;22.23;46.07;98631.28;7314082;19;129114;-38
2023/04/23 06:45:48;;;;;;;64.70;4.82;;;;;;;22.23;46.13;98629.47;7311566;19;129738;-35
2023/04/23 06:48:13;;;;;;;27.45;2.60;;;;;;;22.14;45.72;98608.69;7313598;19;130512;-37
2023/04/23 06:50:39;;;;;;;41.33;3.47;;;;;;;22.32;48.15;98638.94;7311270;19;128979;-36
2023/04/23 06:53:04;;;;;;;44.35;3.40;;;;;;;22.36;48.73;98627.13;7313433;19;129710;-37
2023/04/23 06:55:30;;;;;;;80.77;5.57;;;;;;;22.42;48.95;98636.13;7310405;19;129490;-36
2023/04/23 06:57:55;;;;;;;66.20;5.00;;;;;;;22.47;49.53;98628.59;7311054;19;129256;-38
2023/04/23 07:00:21;;;;;;;37.92;3.28;;;;;;;22.52;48.88;98639.38;7310405;19;129264;-36
2023/04/23 07:02:47;;;;;;;40.17;3.35;;;;;;;22.55;48.98;98628.59;7312575;19;129382;-38
2023/04/23 07:05:12;;;;;;;48.73;3.97;;;;;;;22.56;49.63;98636.28;7313136;19;129184;-41
2023/04/23 07:07:39;;;;;;;55.77;4.33;;;;;;;22.58;49.62;98641.34;7307494;19;130345;-35
2023/04/23 07:10:05;;;;;;;52.28;4.15;;;;;;;22.60;50.05;98644.63;7309232;19;129689;-35
2023/04/23 07:12:31;;;;;;;55.33;3.90;;;;;;;22.58;48.59;98634.31;7313229;19;129388;-37
2023/04/23 07:14:56;;;;;;;75.18;5.50;;;;;;;22.12;46.63;98644.69;7310516;19;129650;-38
2023/04/23 07:17:21;;;;;;;38.65;3.00;;;;;;;22.19;46.25;98650.91;7312163;19;129370;-37
2023/04/23 07:19:47;;;;;;;38.47;3.10;;;;;;;22.17;46.24;98653.69;7309519;19;130926;-38
2023/04/23 07:22:13;;;;;;;63.20;4.20;;;;;;;22.22;46.78;98647.94;7312292;19;129923;-35
2023/04/23 07:24:38;;;;;;;33.40;3.00;;;;;;;22.22;46.17;98655.81;7313003;19;129470;-35
2023/04/23 07:27:04;;;;;;;60.80;4.65;;;;;;;22.19;46.17;98645.66;7311240;19;130250;-38
2023/04/23 07:29:30;;;;;;;39.63;2.97;;;;;;;22.13;46.45;98652.38;7311288;19;131219;-37
2023/04/23 07:31:55;;;;;;;53.33;4.28;;;;;;;22.04;46.28;98637.69;7312178;19;129138;-37
2023/04/23 07:34:20;;;;;;;43.85;3.25;;;;;;;22.24;45.71;98654.69;7312742;19;130908;-39
2023/04/23 07:36:46;;;;;;;46.57;3.73;;;;;;;22.22;46.44;98655.81;7309568;19;129493;-36
2023/04/23 07:39:12;;;;;;;119.55;7.70;;;;;;;22.20;46.07;98657.75;7310026;19;131330;-40
2023/04/23 07:41:37;;;;;;;58.40;3.90;;;;;;;22.16;45.85;98656.47;7307482;19;131222;-37
2023/04/23 07:44:03;;;;;;;65.90;4.75;;;;;;;22.20;45.83;98657.75;7308705;19;130229;-40
2023/04/23 07:46:28;;;;;;;51.83;3.75;;;;;;;22.25;46.13;98658.09;7306262;19;130529;-38
2023/04/23 07:48:54;;;;;;;42.58;3.08;;;;;;;22.27;45.66;98659.56;7309812;19;130150;-38
2023/04/23 07:51:21;;;;;;;44.47;3.43;;;;;;;22.26;45.77;98655.34;7310829;19;129094;-37
2023/04/23 07:53:48;;;;;;;;;;;;;;;22.28;46.03;98660.41;7311572;19;130495;-34
2023/04/23 07:56:13;;;;;;;69.75;5.32;;;;;;;22.31;47.88;98660.88;7305565;19;130426;-40
2023/04/23 07:58:38;;;;;;;83.18;5.60;;;;;;;22.37;48.74;98664.63;7309756;19;129074;-37
2023/04/23 08:01:04;;;;;;;60.67;4.03;;;;;;;22.41;49.14;98658.06;7307948;19;128881;-39
2023/04/23 08:03:29;;;;;;;86.43;6.03;;;;;;;22.49;49.11;98669.34;7302637;19;129453;-36
2023/04/23 08:05:55;;;;;;;44.40;3.20;;;;;;;22.54;49.66;98668.88;7307052;19;129897;-37
2023/04/23 08:08:21;;;;;;;91.68;6.45;;;;;;;22.55;49.34;98670.50;7308729;19;130528;-37
2023/04/23 08:10:46;;;;;;;44.77;3.60;;;;;;;22.57;49.73;98665.91;7309123;19;129319;-37
2023/04/23 08:13:12;;;;;;;62.93;4.43;;;;;;;22.59;49.30;98669.19;7309500;19;129920;-39
2023/04/23 08:15:37;;;;;;;35.05;2.95;;;;;;;22.60;49.35;98671.63;7308077;19;130145;-39
2023/04/23 08:18:03;;;;;;;55.37;4.10;;;;;;;22.62;49.72;98671.47;7311191;19;129771;-37
2023/04/23 08:20:28;;;;;;;22.52;2.38;;;;;;;22.24;46.96;98672.19;7307924;19;129199;-39
2023/04/23 08:22:55;;;;;;;36.17;2.88;;;;;;;22.18;47.05;98662.38;7310082;19;129154;-38
2023/04/23 08:25:20;;;;;;;69.78;5.03;;;;;;;22.30;46.71;98666.25;7309403;19;130332;-39
2023/04/23 08:27:46;;;;;;;60.50;3.83;;;;;;;22.34;46.14;98659.72;7311093;19;129322;-39
2023/04/23 08:30:11;;;;;;;32.42;2.42;;;;;;;22.27;46.12;98670.03;7309634;19;129226;-41
2023/04/23 08:32:40;;;;;;;32.10;2.57;;;;;;;22.30;45.49;98663.66;7309897;19;129622;-39
2023/04/23 08:35:07;;;;;;;27.35;2.30;;;;;;;22.31;45.41;98663.50;7307993;19;131194;-38
2023/04/23 08:37:32;;;;;;;78.13;4.93;;;;;;;22.30;45.74;98669.72;7309356;19;129608;-38
2023/04/23 08:40:00;;;;;;;66.25;4.03;;;;;;;22.28;46.03;98673.50;7308271;19;129977;-38
2023/04/23 08:42:54;;;;;;;64.40;4.20;;;;;;;22.26;45.91;98672.84;7308944;19;130191;-37
2023/04/23 08:45:20;;;;;;;130.65;8.32;;;;;;;22.27;45.22;98669.22;7306372;19;130108;-40
2023/04/23 08:47:46;;;;;;;46.65;3.50;;;;;;;22.33;45.64;98673.81;7304810;19;131110;-38
2023/04/23 08:50:15;;;;;;;62.10;4.05;;;;;;;22.33;45.21;98684.28;7305483;19;129979;-37
2023/04/23 08:52:45;;;;;;;37.13;2.90;;;;;;;22.43;46.94;98679.69;7308234;19;131797;-35
2023/04/23 08:55:11;;;;;;;85.00;5.72;;;;;;;22.34;48.13;98675.44;7305848;19;129855;-40
2023/04/23 08:57:40;;;;;;;56.80;3.93;;;;;;;22.41;49.15;98679.03;7307628;19;129401;-38
2023/04/23 09:00:07;;;;;;;99.93;6.30;;;;;;;22.49;49.28;98681.63;7303338;19;129283;-36
2023/04/23 09:02:40;;;;;;;63.30;4.35;;;;;;;22.49;49.30;98684.25;7304837;19;132577;-44
2023/04/23 09:05:06;;;;;;;35.80;2.80;;;;;;;22.54;48.99;98692.44;7305979;19;130802;-33
2023/04/23 09:07:33;;;;;;;48.03;3.53;;;;;;;22.56;49.43;98690.50;7304913;19;130274;-39
2023/04/23 09:09:58;;;;;;;;;;;;;;;22.67;49.56;98693.56;7311398;19;130144;-37
2023/04/23 09:12:23;;;;;;;79.60;5.33;;;;;;;22.62;49.26;98684.56;7309514;19;130738;-39
2023/04/23 09:14:50;;;;;;;84.40;5.83;;;;;;;22.50;49.44;98675.38;7310592;19;129978;-36
2023/04/23 09:17:17;;;;;;;21.35;2.33;;;;;;;22.41;47.37;98699.97;7315083;19;129487;-40
2023/04/23 09:19:44;;;;;;;46.75;3.40;;;;;;;22.15;46.87;98688.91;7314277;19;130446;-31
2023/04/23 09:22:09;;;;;;;53.17;3.40;;;;;;;22.23;46.53;98694.91;7315153;19;129198;-39
2023/04/23 09:24:35;;;;;;;54.45;3.72;;;;;;;22.26;46.20;98693.78;7316108;19;131028;-38
2023/04/23 09:27:01;;;;;;;35.93;2.77;;;;;;;22.21;46.04;98675.13;7313556;19;129694;-36
2023/04/23 09:29:27;;;;;;;34.00;2.83;;;;;;;22.34;46.20;98704.25;7314485;19;129166;-38
2023/04/23 09:32:07;;;;;;;69.80;4.37;;;;;;;22.33;45.87;98697.38;7314693;19;131336;-37
2023/04/23 09:34:37;;;;;;;49.80;3.40;;;;;;;22.25;46.34;98692.13;7316540;19;130411;-34
2023/04/23 09:37:05;;;;;;;42.28;2.90;;;;;;;22.31;45.45;98701.97;7314067;19;129257;-34
2023/04/23 09:39:33;;;;;;;40.08;2.85;;;;;;;22.35;45.43;98703.25;7314624;19;129092;-38
2023/04/23 09:42:03;;;;;;;55.35;3.67;;;;;;;22.31;45.96;98701.97;7314169;19;129369;-36
2023/04/23 09:44:31;;;;;;;57.50;3.47;;;;;;;22.36;46.19;98699.66;7316197;19;129237;-38
2023/04/23 09:47:08;;;;;;;57.28;3.97;;;;;;;22.35;45.63;98703.25;7315258;19;131824;-38
2023/04/23 09:49:44;;;;;;;50.57;3.37;;;;;;;22.32;45.64;98695.72;7314089;19;129441;-38
2023/04/23 09:52:09;;;;;;;52.50;3.45;;;;;;;22.37;48.30;98702.09;7314013;19;130459;-36
2023/04/23 09:54:35;;;;;;;33.65;2.60;;;;;;;22.41;48.82;98702.59;7313652;19;129320;-40
2023/04/23 09:57:01;;;;;;;66.65;4.18;;;;;;;22.45;48.44;98699.47;7314869;19;129338;-36
2023/04/23 09:59:29;;;;;;;41.95;2.95;;;;;;;22.49;48.84;98687.69;7312440;19;129326;-40
2023/04/23 10:01:55;;;;;;;20.70;2.03;;;;;;;22.51;48.98;98690.94;7312382;19;131073;-39
2023/04/23 10:04:23;;;;;;;69.93;4.30;;;;;;;22.54;49.15;98702.94;7313593;19;131168;-38
2023/04/23 10:06:57;;;;;;;41.47;2.97;;;;;;;22.58;50.04;98698.97;7314860;19;129003;-36
2023/04/23 10:09:23;;;;;;;39.67;2.78;;;;;;;22.60;49.64;98697.00;7313649;19;129027;-38
2023/04/23 10:11:56;;;;;;;;;;;;;;;22.71;49.45;98701.91;7314041;19;130179;-35
2023/04/23 10:14:22;;;;;;;35.55;2.58;;;;;;;22.64;49.91;98703.56;7312890;19;129203;-36
2023/04/23 10:16:56;;;;;;;46.75;3.13;;;;;;;22.22;46.47;98697.69;7309929;19;129047;-36
2023/04/23 10:19:23;;;;;;;80.03;5.05;;;;;;;22.24;46.81;98701.81;7311214;19;129605;-39
2023/04/23 10:21:54;;;;;;;43.75;2.88;;;;;;;22.23;45.83;98694.91;7315624;19;129248;-38
2023/04/23 10:24:23;;;;;;;39.25;2.83;;;;;;;22.28;46.26;98692.63;7313743;19;130097;-38
2023/04/23 10:26:50;;;;;;;34.28;2.13;;;;;;;22.37;45.79;98694.25;7312512;19;129020;-38
2023/04/23 10:29:17;;;;;;;56.20;3.85;;;;;;;22.36;45.85;98694.41;7311149;19;129004;-34
2023/04/23 10:31:44;;;;;;;31.27;2.13;;;;;;;22.38;45.97;98693.25;7313138;19;130837;-39
2023/04/23 10:34:10;;;;;;;52.45;3.28;;;;;;;22.35;45.41;98692.78;7310358;19;130765;-38
2023/04/23 10:36:38;;;;;;;36.43;2.40;;;;;;;22.26;45.31;98684.13;7309027;19;128943;-38
2023/04/23 10:39:07;;;;;;;46.47;2.80;;;;;;;22.34;46.07;98693.75;7313609;19;129068;-37
2023/04/23 10:41:38;;;;;;;44.97;3.00;;;;;;;22.29;45.62;98689.03;7314969;19;130891;-38
2023/04/23 10:44:04;;;;;;;28.30;2.22;;;;;;;22.33;45.93;98692.94;7314173;19;130226;-38
2023/04/23 10:46:30;;;;;;;;;;;;;;;22.34;45.26;98685.91;7313424;19;128860;-35
2023/04/23 10:49:15;;;;;;;63.63;3.65;;;;;;;22.38;48.84;98687.22;7313258;19;128915;-37
2023/04/23 10:51:45;;;;;;;48.47;3.00;;;;;;;22.37;48.22;98686.41;7313117;19;128998;-38
2023/04/23 10:54:14;;;;;;;43.10;2.83;;;;;;;22.48;48.69;98687.84;7312874;19;129735;-38
2023/04/23 10:56:40;;;;;;;45.67;3.08;;;;;;;22.50;49.04;98685.88;7306513;19;130193;-34
2023/04/23 10:59:21;;;;;;;37.55;2.80;;;;;;;22.44;49.52;98662.97;7312641;19;131770;-40
2023/04/23 11:01:49;;;;;;;55.15;3.47;;;;;;;22.58;49.85;98672.78;7309947;19;131124;-39
2023/04/23 11:04:26;;;;;;;52.45;3.42;;;;;;;22.61;49.50;98677.72;7312096;19;129626;-36
2023/04/23 11:06:55;;;;;;;48.60;3.05;;;;;;;22.50;49.41;98663.13;7310968;19;128859;-36
2023/04/23 11:09:31;;;;;;;56.92;3.88;;;;;;;22.64;49.52;98698.31;7311306;19;129019;-38
2023/04/23 11:11:56;;;;;;;81.07;5.03;;;;;;;;;;7309499;19;130541;-37
2023/04/23 11:14:40;;;;;;;49.13;3.47;;;;;;;22.20;46.92;98689.19;7311520;19;129373;-35
2023/04/23 11:17:05;;;;;;;27.85;2.30;;;;;;;22.19;46.31;98698.88;7309574;19;129363;-39